Terminal Aerodrome Forecast
Issued by NWS Grand Forks, ND

Home | Current Version | Previous Version | Graphics & Text | Print | Product List | Glossary On
Versions: 1 2 3 4 5 6 7 8 9 10 11 12 13 14
000
FTUS43 KFGF 151134 AAA
TAFFAR
TAF AMD
KFAR 151134Z 1512/1612 22004KT P6SM SCT250
     FM151600 23009KT P6SM BKN080
     FM152000 28011KT P6SM BKN100
     FM152200 29010KT P6SM SCT080
     FM160100 28006KT P6SM FEW200
     FM160300 25006KT P6SM SKC
     FM161000 20006KT P6SM SKC=

USA.gov is the U.S. government's official web portal to all federal, state and local government web resources and services.